Barkley Regional Airport Paducah US
ICAO: KPAH
IATA: PAH
Category: Medium
Scheduled Services: Yes

Elevation: 410 ft
TransAlt. 18000 ft.

Airport Communications:
ASOS:118.375
MEMPHIS CNTR:133.65
CTAF:119.6
GND:121.7
LOUISVILLE RDO:122.2
PADUCAH TWR:119.6
UNICOM:123

KPAH Zoom In..

If you have problems with the map follow the link
https://www.worldairports.se/pages/airport.php?
ICAO=KPAH

Runways:

(A) RW 04 length 6500 ft width 150 ft
ILS 108.50 / hdg 45

(B) RW 14 length 5499 ft width 150 ft
---- / hdg 140

(C) RW 22 length 6500 ft width 150 ft
---- / hdg 225

(D) RW 32 length 5499 ft width 150 ft
---- / hdg 320

Location; KPAH
Day. 14 / Time. 21.27 Zulu
* Altimeter: 29.88
* Temperature: 10° c. 50°f.
* Wind from: 060° Speed 08 kn.
Dewpoint: 08° c.
Visibility: 1 m.
Clouds: Overcast 500 ft.
Conditions: Light Rain.Conditions: Mist.

KPAH 142127Z 06008KT 1 1/2SM -RA BR OVC005 10/08 A2988 RMK AO2 P0004 T01000083


Wind From 060°
Speed 08 kn.

 
 
jpsmedia.com for Web Design worldairports.se 2018   terms of use